createdAt,value
2022-11-21T00:02:10.931Z,82.32
2022-11-21T00:07:12.903Z,85.28
2022-11-21T00:12:16.416Z,84.20
2022-11-21T00:17:18.360Z,77.82
2022-11-21T00:22:20.686Z,78.43
2022-11-21T00:27:22.955Z,81.10
2022-11-21T00:32:25.090Z,80.78
2022-11-21T00:37:27.190Z,78.20
2022-11-21T00:42:29.066Z,88.05
2022-11-21T00:47:30.954Z,73.80
2022-11-21T00:52:32.908Z,75.03
2022-11-21T00:57:34.875Z,76.10
2022-11-21T01:02:36.729Z,77.53
2022-11-21T01:07:40.132Z,78.72
2022-11-21T01:12:42.051Z,76.30
2022-11-21T01:17:43.866Z,76.57
2022-11-21T01:22:54.591Z,74.20
2022-11-21T01:27:56.512Z,76.10
2022-11-21T01:32:58.467Z,79.30
2022-11-21T01:38:00.452Z,73.05
2022-11-21T01:43:09.892Z,82.10
2022-11-21T01:48:11.950Z,74.85
2022-11-21T01:53:14.051Z,76.35
2022-11-21T01:58:16.314Z,96.72
2022-11-21T02:03:24.501Z,95.30
2022-11-21T02:08:27.515Z,91.90
2022-11-21T02:13:29.472Z,86.03
2022-11-21T02:18:31.454Z,89.60
2022-11-21T02:24:00.215Z,83.13
2022-11-21T02:29:02.500Z,76.32
2022-11-21T02:34:04.363Z,79.63
2022-11-21T02:39:10.318Z,76.82
2022-11-21T02:44:28.131Z,84.82
2022-11-21T02:49:43.180Z,85.93
2022-11-21T02:54:45.119Z,83.43
2022-11-21T02:59:47.052Z,88.68
2022-11-21T03:04:48.928Z,92.22
2022-11-21T03:09:50.950Z,89.60
2022-11-21T03:14:52.929Z,94.72
2022-11-21T03:19:55.056Z,84.78
2022-11-21T03:24:57.223Z,91.07
2022-11-21T03:29:59.148Z,81.28
2022-11-21T03:35:01.014Z,84.72
2022-11-21T03:40:03.085Z,80.43
2022-11-21T03:45:05.559Z,82.63
2022-11-21T03:50:08.003Z,83.53
2022-11-21T03:55:09.876Z,84.10
2022-11-21T04:00:12.804Z,79.47
2022-11-21T04:05:14.784Z,86.60
2022-11-21T04:10:16.946Z,81.75
2022-11-21T04:15:18.824Z,83.03
2022-11-21T04:20:20.763Z,88.88
2022-11-21T04:25:22.886Z,83.93
2022-11-21T04:30:25.599Z,79.30
2022-11-21T04:35:27.911Z,77.00
2022-11-21T04:40:29.845Z,77.13
2022-11-21T04:45:32.068Z,87.50
2022-11-21T04:50:34.072Z,78.38
2022-11-21T04:55:35.991Z,73.40
2022-11-21T05:00:38.036Z,74.28
2022-11-21T05:05:39.982Z,83.45
2022-11-21T05:11:01.955Z,84.97
2022-11-21T05:16:04.788Z,86.80
2022-11-21T05:21:06.748Z,85.93
2022-11-21T05:26:08.827Z,88.15
2022-11-21T05:31:16.765Z,91.53
2022-11-21T05:36:25.509Z,92.60
2022-11-21T05:41:27.476Z,86.50
2022-11-21T05:46:29.495Z,97.93
2022-11-21T05:51:31.415Z,85.93
2022-11-21T05:56:33.568Z,91.18
2022-11-21T06:01:53.827Z,87.63
2022-11-21T06:06:55.721Z,99.25
2022-11-21T06:11:57.621Z,106.60
2022-11-21T06:16:59.535Z,99.20
2022-11-21T06:22:01.505Z,112.18
2022-11-21T06:27:03.957Z,85.72
2022-11-21T06:32:06.145Z,88.60
2022-11-21T06:37:08.216Z,92.07
2022-11-21T06:42:10.087Z,88.55
2022-11-21T06:47:11.979Z,92.45
2022-11-21T06:52:14.119Z,87.68
2022-11-21T06:57:16.982Z,75.78
2022-11-21T07:02:18.857Z,81.67
2022-11-21T07:07:27.244Z,109.00
2022-11-21T07:12:51.276Z,82.22
2022-11-21T07:17:53.183Z,84.45
2022-11-21T07:22:55.854Z,80.85
2022-11-21T07:28:02.128Z,85.90
2022-11-21T07:33:13.204Z,82.03
2022-11-21T07:38:18.762Z,80.03
2022-11-21T07:43:21.081Z,80.50
2022-11-21T07:48:23.078Z,84.80
2022-11-21T07:53:25.129Z,90.88
2022-11-21T07:58:27.123Z,81.38
2022-11-21T08:03:29.160Z,79.65
2022-11-21T08:08:31.786Z,81.90
2022-11-21T08:13:35.270Z,80.38
2022-11-21T08:23:39.164Z,78.10
2022-11-21T08:28:41.424Z,83.38
2022-11-21T08:33:43.383Z,81.47
2022-11-21T08:38:45.287Z,79.55
2022-11-21T08:43:47.270Z,76.82
2022-11-21T08:48:55.418Z,75.72
2022-11-21T08:54:04.051Z,81.60
2022-11-21T08:59:06.028Z,82.90
2022-11-21T09:04:08.320Z,77.95
2022-11-21T09:09:10.270Z,82.30
2022-11-21T09:14:30.775Z,68.53
2022-11-21T09:19:32.794Z,60.88
2022-11-21T09:24:34.696Z,69.30
2022-11-21T09:29:36.760Z,58.50
2022-11-21T09:34:38.956Z,57.50
2022-11-21T09:39:41.059Z,53.45
2022-11-21T09:44:48.981Z,56.28
2022-11-21T09:50:00.674Z,49.92
2022-11-21T09:55:06.372Z,48.50
2022-11-21T10:00:22.416Z,53.28
2022-11-21T10:05:36.682Z,61.80
2022-11-21T10:10:54.345Z,52.58
2022-11-21T10:16:03.253Z,80.97
2022-11-21T10:21:18.599Z,61.35
2022-11-21T10:26:46.569Z,75.00
2022-11-21T10:31:49.465Z,50.38
2022-11-21T10:36:57.943Z,51.90
2022-11-21T10:42:38.475Z,47.20
2022-11-21T10:47:40.496Z,47.15
2022-11-21T10:52:49.974Z,45.35
2022-11-21T10:57:54.419Z,47.70
2022-11-21T11:03:16.740Z,49.90
2022-11-21T11:08:18.698Z,43.25
2022-11-21T11:13:50.385Z,49.03
2022-11-21T11:19:08.727Z,53.47
2022-11-21T11:24:10.664Z,50.90
2022-11-21T11:29:24.601Z,50.85
2022-11-21T11:34:37.228Z,54.30
2022-11-21T11:39:39.047Z,54.53
2022-11-21T11:45:32.977Z,54.95
2022-11-21T11:51:03.585Z,63.55
2022-11-21T11:56:13.291Z,57.97
2022-11-21T12:01:48.587Z,58.42
2022-11-21T12:12:41.559Z,73.72
2022-11-21T12:18:20.877Z,53.45
2022-11-21T12:23:31.745Z,52.72
2022-11-21T12:28:39.751Z,53.78
2022-11-21T12:33:51.629Z,54.17
2022-11-21T12:38:56.773Z,57.13
2022-11-21T12:44:24.866Z,51.47
2022-11-21T12:50:16.160Z,47.45
2022-11-21T12:55:40.079Z,46.78
2022-11-21T13:00:57.401Z,44.85
2022-11-21T13:06:01.767Z,47.10
2022-11-21T13:11:39.462Z,49.25
2022-11-21T13:16:48.367Z,58.20
2022-11-21T13:21:54.879Z,55.55
2022-11-21T13:26:56.960Z,59.15
2022-11-21T13:31:58.891Z,63.45
2022-11-21T13:37:01.053Z,65.53
2022-11-21T13:42:24.192Z,58.80
2022-11-21T13:47:26.003Z,59.38
2022-11-21T13:52:55.823Z,53.90
2022-11-21T13:58:22.736Z,64.20
2022-11-21T14:03:33.879Z,66.50
2022-11-21T14:08:36.224Z,70.07
2022-11-21T14:13:38.907Z,69.50
2022-11-21T14:18:44.735Z,67.70
2022-11-21T14:23:47.667Z,70.70
2022-11-21T14:28:49.744Z,75.50
2022-11-21T14:33:58.319Z,71.35
2022-11-21T14:44:29.136Z,69.63
2022-11-21T14:49:31.293Z,70.47
2022-11-21T14:54:40.134Z,73.22
2022-11-21T14:59:43.792Z,72.15
2022-11-21T15:04:48.442Z,66.00
2022-11-21T15:15:22.294Z,91.78
2022-11-21T15:20:26.274Z,78.53
2022-11-21T15:25:44.976Z,71.28
2022-11-21T15:30:46.929Z,66.13
2022-11-21T15:35:54.407Z,73.00
2022-11-21T15:41:00.092Z,69.30
2022-11-21T15:46:23.261Z,69.50
2022-11-21T15:56:56.078Z,64.90
2022-11-21T16:01:58.207Z,65.68
2022-11-21T16:07:00.365Z,64.95
2022-11-21T16:12:02.452Z,67.15
2022-11-21T16:17:04.540Z,61.50
2022-11-21T16:22:06.469Z,66.35
2022-11-21T16:27:08.405Z,64.47
2022-11-21T16:32:10.852Z,64.18
2022-11-21T16:37:13.117Z,62.13
2022-11-21T16:42:15.108Z,64.72
2022-11-21T16:47:17.205Z,60.95
2022-11-21T16:52:19.239Z,61.95
2022-11-21T16:57:21.233Z,64.03
2022-11-21T17:02:23.145Z,73.80
2022-11-21T17:07:25.221Z,66.22
2022-11-21T17:12:27.338Z,64.07
2022-11-21T17:17:29.523Z,70.97
2022-11-21T17:22:31.578Z,75.10
2022-11-21T17:27:33.508Z,65.28
2022-11-21T17:32:35.739Z,87.28
2022-11-21T17:37:37.822Z,141.35
2022-11-21T17:42:41.108Z,82.85
2022-11-21T17:47:44.224Z,94.77
2022-11-21T17:52:47.045Z,90.27
2022-11-21T17:57:49.044Z,83.50
2022-11-21T18:02:51.053Z,89.07
2022-11-21T18:07:53.143Z,78.53
2022-11-21T18:12:55.116Z,89.13
2022-11-21T18:17:57.092Z,68.00
2022-11-21T18:22:58.960Z,79.30
2022-11-21T18:28:00.888Z,70.90
2022-11-21T18:33:03.283Z,78.97
2022-11-21T18:38:05.203Z,76.78
2022-11-21T18:43:07.728Z,80.15
2022-11-21T18:48:09.840Z,73.70
2022-11-21T18:53:12.170Z,71.20
2022-11-21T18:58:14.260Z,72.78
2022-11-21T19:03:16.091Z,80.57
2022-11-21T19:08:18.028Z,80.25
2022-11-21T19:13:20.151Z,92.18
2022-11-21T19:18:22.119Z,79.78
2022-11-21T19:23:23.957Z,78.05
2022-11-21T19:28:27.406Z,76.88
2022-11-21T19:38:32.960Z,61.65
2022-11-21T19:43:34.980Z,62.80
2022-11-21T19:48:37.157Z,55.75
2022-11-21T19:53:40.224Z,58.25
2022-11-21T19:58:43.215Z,62.58
2022-11-21T20:03:47.141Z,57.90
2022-11-21T20:08:51.220Z,59.28
2022-11-21T20:13:53.151Z,61.15
2022-11-21T20:18:57.688Z,60.65
2022-11-21T20:23:59.972Z,71.43
2022-11-21T20:29:02.034Z,56.97
2022-11-21T20:34:11.676Z,61.40
2022-11-21T20:39:18.547Z,66.82
2022-11-21T20:49:43.667Z,68.43
2022-11-21T20:54:45.638Z,54.92
2022-11-21T20:59:47.616Z,54.92
2022-11-21T21:04:49.563Z,50.75
2022-11-21T21:09:51.510Z,55.05
2022-11-21T21:14:53.579Z,49.63
2022-11-21T21:20:01.621Z,50.97
2022-11-21T21:25:10.936Z,49.65
2022-11-21T21:30:13.071Z,48.65
2022-11-21T21:35:15.003Z,51.95
2022-11-21T21:40:17.443Z,53.17
2022-11-21T21:45:20.595Z,52.60
2022-11-21T21:50:22.923Z,52.17
2022-11-21T21:55:24.998Z,48.75
2022-11-21T22:00:26.849Z,49.47
2022-11-21T22:05:28.817Z,46.97
2022-11-21T22:10:30.667Z,45.83
2022-11-21T22:15:32.755Z,49.08
2022-11-21T22:20:34.687Z,45.53
2022-11-21T22:25:36.538Z,53.67
2022-11-21T22:30:39.512Z,46.17
2022-11-21T22:35:41.615Z,48.37
2022-11-21T22:40:44.328Z,45.72
2022-11-21T22:45:46.377Z,46.78
2022-11-21T22:50:48.636Z,49.60
2022-11-21T22:56:01.320Z,44.28
2022-11-21T23:01:04.748Z,47.10
2022-11-21T23:06:10.114Z,46.22
2022-11-21T23:11:14.652Z,45.95
2022-11-21T23:16:17.381Z,45.47
2022-11-21T23:21:19.283Z,43.22
2022-11-21T23:26:21.150Z,46.08
2022-11-21T23:31:23.112Z,47.53
2022-11-21T23:36:25.057Z,48.40
2022-11-21T23:41:26.969Z,46.15
2022-11-21T23:46:29.671Z,45.35
2022-11-21T23:51:31.895Z,48.03
2022-11-21T23:56:34.279Z,47.60
